Time;durP1;ratioP1;P1;durP2;ratioP2;P2;SDS_P1;SDS_P2;PMS_P1;PMS_P2;Temp;Humidity;BMP_temperature;BMP_pressure;BME280_temperature;BME280_humidity;BME280_pressure;Samples;Min_cycle;Max_cycle;Signal;HPM_P1;HPM_P2
2021/03/15 00:01:27;;;;;;;9.60;8.80;;;;;;;;;;5020814;28;20459;-15
2021/03/15 00:03:55;;;;;;;9.53;8.13;;;;;;;;;;5018190;28;20498;-14
2021/03/15 00:06:24;;;;;;;7.70;7.00;;;;;;;;;;5015266;28;20458;-14
2021/03/15 00:08:55;;;;;;;8.50;7.83;;;;;;;;;;5014964;28;20502;-15
2021/03/15 00:11:23;;;;;;;7.70;7.10;;;;;;;;;;5019007;28;20447;-14
2021/03/15 00:13:54;;;;;;;7.33;6.83;;;;;;;;;;5020656;28;20453;-15
2021/03/15 00:16:22;;;;;;;7.23;6.73;;;;;;;;;;5023548;28;20447;-14
2021/03/15 00:18:50;;;;;;;7.90;7.23;;;;;;;;;;4989461;28;20455;-14
2021/03/15 00:21:18;;;;;;;7.83;7.07;;;;;;;;;;5001007;28;20507;-15
2021/03/15 00:23:48;;;;;;;8.20;7.43;;;;;;;;;;5018516;28;20439;-14
2021/03/15 00:26:20;;;;;;;7.60;7.00;;;;;;;;;;5015700;28;20491;-15
2021/03/15 00:28:48;;;;;;;7.20;6.70;;;;;;;;;;5013024;28;20487;-15
2021/03/15 00:31:17;;;;;;;7.43;6.40;;;;;;;;;;4998477;28;20451;-14
2021/03/15 00:33:47;;;;;;;7.20;6.70;;;;;;;;;;5015244;28;20448;-15
2021/03/15 00:36:17;;;;;;;8.13;7.20;;;;;;;;;;5015585;28;20435;-15
2021/03/15 00:38:46;;;;;;;8.27;7.50;;;;;;;;;;4982381;28;20766;-15
2021/03/15 00:41:20;;;;;;;7.37;6.70;;;;;;;;;;4998088;28;20601;-16
2021/03/15 00:43:52;;;;;;;7.00;6.40;;;;;;;;;;5008401;28;20749;-16
2021/03/15 00:46:20;;;;;;;7.33;6.70;;;;;;;;;;5016454;28;20450;-14
2021/03/15 00:48:48;;;;;;;7.63;6.93;;;;;;;;;;4981752;28;20462;-14
2021/03/15 00:51:16;;;;;;;7.87;7.07;;;;;;;;;;5015221;28;20539;-16
2021/03/15 00:53:46;;;;;;;7.60;6.90;;;;;;;;;;5013217;28;20561;-15
2021/03/15 00:56:15;;;;;;;8.03;7.23;;;;;;;;;;4998439;28;20440;-15
2021/03/15 00:58:44;;;;;;;8.13;7.53;;;;;;;;;;4989767;28;20427;-15
2021/03/15 01:01:14;;;;;;;8.67;7.93;;;;;;;;;;5015791;28;20514;-16
2021/03/15 01:03:49;;;;;;;8.17;7.50;;;;;;;;;;5002327;28;20872;-15
2021/03/15 01:06:17;;;;;;;7.60;7.03;;;;;;;;;;5011533;28;20463;-15
2021/03/15 01:09:03;;;;;;;8.67;7.97;;;;;;;;;;5007251;28;20463;-15
2021/03/15 01:11:43;;;;;;;8.30;7.70;;;;;;;;;;4990103;28;20452;-14
2021/03/15 01:14:14;;;;;;;8.43;7.63;;;;;;;;;;5004261;28;20771;-15
2021/03/15 01:17:02;;;;;;;7.80;7.17;;;;;;;;;;5009466;28;20773;-16
2021/03/15 01:19:35;;;;;;;7.77;7.17;;;;;;;;;;5012661;28;20491;-15
2021/03/15 01:22:03;;;;;;;7.93;7.30;;;;;;;;;;5014234;28;20915;-14
2021/03/15 01:24:31;;;;;;;7.47;6.90;;;;;;;;;;4981693;28;20537;-14
2021/03/15 01:27:04;;;;;;;7.37;6.77;;;;;;;;;;5017990;28;20566;-15
2021/03/15 01:29:32;;;;;;;7.43;6.53;;;;;;;;;;5000699;28;20697;-15
2021/03/15 01:32:00;;;;;;;7.87;6.80;;;;;;;;;;5000657;28;20458;-15
2021/03/15 01:34:28;;;;;;;7.30;6.70;;;;;;;;;;5001867;28;20455;-14
2021/03/15 01:36:56;;;;;;;7.67;6.87;;;;;;;;;;5018243;28;20443;-15
2021/03/15 01:39:24;;;;;;;7.37;6.80;;;;;;;;;;4984951;28;20872;-15
2021/03/15 01:41:52;;;;;;;7.07;6.57;;;;;;;;;;5018143;28;20463;-15
2021/03/15 01:44:21;;;;;;;7.20;6.50;;;;;;;;;;5015839;28;20487;-16
2021/03/15 01:46:49;;;;;;;6.27;5.80;;;;;;;;;;5001667;28;20533;-14
2021/03/15 01:49:17;;;;;;;7.03;6.53;;;;;;;;;;5002169;28;20806;-14
2021/03/15 01:51:46;;;;;;;8.90;6.80;;;;;;;;;;5017883;28;20898;-14
2021/03/15 01:54:15;;;;;;;6.57;6.17;;;;;;;;;;5019574;28;20497;-15
2021/03/15 01:56:43;;;;;;;8.37;7.60;;;;;;;;;;5020156;28;20684;-15
2021/03/15 01:59:12;;;;;;;9.17;8.47;;;;;;;;;;5018189;28;20633;-15
2021/03/15 02:01:46;;;;;;;7.80;7.17;;;;;;;;;;5018946;28;20443;-15
2021/03/15 02:04:15;;;;;;;7.97;7.37;;;;;;;;;;5019015;28;20439;-15
2021/03/15 02:06:42;;;;;;;10.03;7.00;;;;;;;;;;5018471;28;20479;-15
2021/03/15 02:09:10;;;;;;;7.10;6.63;;;;;;;;;;4998664;28;20495;-15
2021/03/15 02:11:41;;;;;;;8.27;7.57;;;;;;;;;;5023609;28;20498;-16
2021/03/15 02:14:25;;;;;;;7.27;6.77;;;;;;;;;;5023518;28;20482;-15
2021/03/15 02:16:59;;;;;;;7.80;7.20;;;;;;;;;;5023995;28;20439;-15
2021/03/15 02:19:43;;;;;;;8.23;7.57;;;;;;;;;;5007649;28;20450;-15
2021/03/15 02:22:14;;;;;;;8.10;7.40;;;;;;;;;;5016232;28;20513;-16
2021/03/15 02:24:50;;;;;;;7.93;7.33;;;;;;;;;;5017640;28;20467;-15
2021/03/15 02:27:32;;;;;;;9.10;8.20;;;;;;;;;;5011451;28;20481;-16
2021/03/15 02:30:18;;;;;;;7.77;7.07;;;;;;;;;;5001819;28;20443;-16
2021/03/15 02:33:04;;;;;;;7.23;6.63;;;;;;;;;;5017032;28;20435;-15
2021/03/15 02:35:34;;;;;;;6.97;6.37;;;;;;;;;;5017595;28;20446;-14
2021/03/15 02:38:11;;;;;;;6.60;6.20;;;;;;;;;;5016362;28;20454;-14
2021/03/15 02:40:40;;;;;;;6.77;6.17;;;;;;;;;;5017170;28;20485;-15
2021/03/15 02:43:10;;;;;;;7.17;6.47;;;;;;;;;;5000783;28;20474;-15
2021/03/15 02:45:38;;;;;;;7.30;6.50;;;;;;;;;;4999878;28;20466;-15
2021/03/15 02:48:10;;;;;;;6.40;5.90;;;;;;;;;;4999686;28;20467;-15
2021/03/15 02:50:45;;;;;;;6.47;6.10;;;;;;;;;;4999512;28;20443;-14
2021/03/15 02:53:14;;;;;;;6.07;5.70;;;;;;;;;;5017368;28;20459;-14
2021/03/15 02:55:46;;;;;;;6.00;5.60;;;;;;;;;;5014709;28;20491;-14
2021/03/15 02:58:16;;;;;;;6.40;5.90;;;;;;;;;;5017021;28;20856;-14
2021/03/15 03:00:45;;;;;;;6.70;6.10;;;;;;;;;;4999184;28;20435;-15
2021/03/15 03:03:14;;;;;;;6.97;6.20;;;;;;;;;;5007623;28;20452;-15
2021/03/15 03:05:43;;;;;;;8.77;8.13;;;;;;;;;;4997425;28;20901;-15
2021/03/15 03:08:14;;;;;;;6.77;6.23;;;;;;;;;;4981568;28;20574;-15
2021/03/15 03:10:42;;;;;;;7.03;6.13;;;;;;;;;;5007238;28;20475;-15
2021/03/15 03:13:10;;;;;;;6.13;5.53;;;;;;;;;;5016723;28;20462;-15
2021/03/15 03:15:38;;;;;;;6.17;5.80;;;;;;;;;;5016949;28;20444;-15
2021/03/15 03:18:10;;;;;;;6.97;6.33;;;;;;;;;;5015916;28;20542;-15
2021/03/15 03:20:39;;;;;;;6.40;5.93;;;;;;;;;;5014630;28;20533;-15
2021/03/15 03:23:07;;;;;;;6.20;5.70;;;;;;;;;;5016875;28;20788;-15
2021/03/15 03:25:36;;;;;;;5.93;5.53;;;;;;;;;;5017806;28;20454;-15
2021/03/15 03:28:07;;;;;;;6.90;6.40;;;;;;;;;;5017492;28;20905;-15
2021/03/15 03:30:39;;;;;;;6.90;6.40;;;;;;;;;;5016803;28;20436;-15
2021/03/15 03:33:08;;;;;;;6.40;5.90;;;;;;;;;;4998795;28;20454;-15
2021/03/15 03:35:35;;;;;;;6.17;5.70;;;;;;;;;;5017032;28;20539;-15
2021/03/15 03:38:06;;;;;;;5.93;5.53;;;;;;;;;;5019037;28;20438;-15
2021/03/15 03:40:36;;;;;;;6.77;6.07;;;;;;;;;;5001851;28;20886;-15
2021/03/15 03:43:04;;;;;;;6.83;6.13;;;;;;;;;;5001579;28;20554;-15
2021/03/15 03:45:36;;;;;;;6.77;6.27;;;;;;;;;;5014954;28;20436;-15
2021/03/15 03:48:04;;;;;;;6.73;5.70;;;;;;;;;;4999654;28;20490;-15
2021/03/15 03:50:33;;;;;;;7.50;6.80;;;;;;;;;;5015676;28;20743;-15
2021/03/15 03:53:05;;;;;;;6.37;5.87;;;;;;;;;;5016126;28;20431;-15
2021/03/15 03:55:42;;;;;;;6.80;6.20;;;;;;;;;;5015123;28;20439;-15
2021/03/15 03:58:12;;;;;;;6.43;5.93;;;;;;;;;;5016072;28;20452;-15
2021/03/15 04:00:45;;;;;;;6.63;6.10;;;;;;;;;;4996973;28;20455;-14
2021/03/15 04:03:15;;;;;;;6.57;6.00;;;;;;;;;;5015032;28;20444;-14
2021/03/15 04:05:44;;;;;;;6.30;5.80;;;;;;;;;;5014928;28;21084;-14
2021/03/15 04:08:14;;;;;;;6.10;5.70;;;;;;;;;;5014625;28;20490;-14
2021/03/15 04:10:52;;;;;;;6.27;5.77;;;;;;;;;;4995093;28;20503;-14
2021/03/15 04:13:21;;;;;;;6.30;5.77;;;;;;;;;;5015087;28;20443;-15
2021/03/15 04:15:50;;;;;;;6.40;6.00;;;;;;;;;;5013670;28;20442;-15
2021/03/15 04:18:21;;;;;;;6.90;6.30;;;;;;;;;;5014375;28;20443;-15
2021/03/15 04:20:51;;;;;;;6.33;5.90;;;;;;;;;;5014516;28;20911;-16
2021/03/15 04:23:21;;;;;;;6.53;6.10;;;;;;;;;;5015199;28;20464;-15
2021/03/15 04:25:49;;;;;;;6.90;6.40;;;;;;;;;;5014081;28;20460;-14
2021/03/15 04:28:18;;;;;;;6.70;6.20;;;;;;;;;;5013676;28;20875;-15
2021/03/15 04:30:50;;;;;;;10.93;6.10;;;;;;;;;;5003228;28;20460;-16
2021/03/15 04:33:19;;;;;;;11.43;6.60;;;;;;;;;;4996229;28;20778;-15
2021/03/15 04:35:50;;;;;;;6.70;5.87;;;;;;;;;;5012887;28;20447;-15
2021/03/15 04:38:19;;;;;;;7.10;6.60;;;;;;;;;;4975269;28;20473;-15
2021/03/15 04:40:49;;;;;;;7.20;6.60;;;;;;;;;;4994120;28;20846;-15
2021/03/15 04:43:18;;;;;;;7.33;6.73;;;;;;;;;;4977578;28;20460;-15
2021/03/15 04:45:48;;;;;;;8.87;6.20;;;;;;;;;;4974673;28;20450;-16
2021/03/15 04:48:18;;;;;;;6.10;5.70;;;;;;;;;;4993846;28;20506;-16
2021/03/15 04:50:49;;;;;;;7.13;6.00;;;;;;;;;;4985749;28;20737;-16
2021/03/15 04:53:18;;;;;;;6.53;6.10;;;;;;;;;;4993927;28;20452;-15
2021/03/15 04:55:46;;;;;;;6.93;6.30;;;;;;;;;;4994038;28;20775;-15
2021/03/15 04:58:17;;;;;;;6.63;6.00;;;;;;;;;;4998575;28;20867;-15
2021/03/15 05:00:45;;;;;;;6.87;6.37;;;;;;;;;;5003809;28;20475;-14
2021/03/15 05:03:15;;;;;;;6.80;6.40;;;;;;;;;;5008138;28;20456;-16
2021/03/15 05:05:44;;;;;;;7.37;6.27;;;;;;;;;;4980912;28;20483;-15
2021/03/15 05:08:15;;;;;;;7.37;6.77;;;;;;;;;;5001084;28;21074;-15
2021/03/15 05:10:43;;;;;;;6.80;6.30;;;;;;;;;;4992409;28;20735;-14
2021/03/15 05:13:10;;;;;;;7.93;7.33;;;;;;;;;;4990321;28;20463;-16
2021/03/15 05:15:39;;;;;;;7.97;7.47;;;;;;;;;;4994978;28;20478;-15
2021/03/15 05:18:09;;;;;;;10.30;7.37;;;;;;;;;;4993462;28;20428;-15
2021/03/15 05:20:36;;;;;;;8.60;7.77;;;;;;;;;;5010830;28;20458;-15
2021/03/15 05:23:07;;;;;;;6.90;6.40;;;;;;;;;;5003387;28;20498;-16
2021/03/15 05:25:35;;;;;;;7.50;6.90;;;;;;;;;;4987615;28;20462;-16
2021/03/15 05:28:05;;;;;;;7.60;6.80;;;;;;;;;;4999326;28;20478;-15
2021/03/15 05:30:34;;;;;;;7.97;7.27;;;;;;;;;;4996516;28;20440;-16
2021/03/15 05:33:05;;;;;;;6.53;6.23;;;;;;;;;;4995615;28;20444;-15
2021/03/15 05:35:33;;;;;;;9.13;8.07;;;;;;;;;;4996220;28;20440;-15
2021/03/15 05:38:01;;;;;;;7.70;6.97;;;;;;;;;;4993049;28;20484;-15
2021/03/15 05:40:29;;;;;;;6.77;6.37;;;;;;;;;;4991343;28;20877;-15
2021/03/15 05:43:15;;;;;;;8.00;7.43;;;;;;;;;;4990404;28;20448;-15
2021/03/15 05:45:57;;;;;;;9.80;7.53;;;;;;;;;;4990826;28;21051;-15
2021/03/15 05:48:48;;;;;;;7.73;7.17;;;;;;;;;;4983194;28;20530;-14
2021/03/15 05:51:22;;;;;;;7.87;7.30;;;;;;;;;;4973912;28;20575;-15
2021/03/15 05:54:08;;;;;;;8.80;7.83;;;;;;;;;;5008109;28;20439;-15
2021/03/15 05:56:43;;;;;;;9.27;8.50;;;;;;;;;;4990648;28;20477;-15
2021/03/15 05:59:23;;;;;;;7.57;6.97;;;;;;;;;;4990467;28;21009;-15
2021/03/15 06:01:58;;;;;;;7.33;6.73;;;;;;;;;;5009649;28;20445;-16
2021/03/15 06:04:46;;;;;;;9.90;9.10;;;;;;;;;;5007511;28;20474;-15
2021/03/15 06:07:16;;;;;;;8.10;7.60;;;;;;;;;;4967498;28;20823;-15
2021/03/15 06:09:47;;;;;;;11.67;10.30;;;;;;;;;;4982343;28;20500;-14
2021/03/15 06:12:24;;;;;;;10.10;9.30;;;;;;;;;;4991001;28;20972;-15
2021/03/15 06:14:54;;;;;;;9.73;9.03;;;;;;;;;;5004751;28;20470;-15
2021/03/15 06:17:23;;;;;;;12.40;8.00;;;;;;;;;;5007204;28;20800;-15
2021/03/15 06:19:52;;;;;;;9.10;6.77;;;;;;;;;;5001622;28;20847;-14
2021/03/15 06:22:22;;;;;;;9.93;7.60;;;;;;;;;;4981400;28;20549;-14
2021/03/15 06:24:50;;;;;;;7.43;6.93;;;;;;;;;;4985737;28;20464;-15
2021/03/15 06:27:21;;;;;;;7.47;6.73;;;;;;;;;;4986416;28;20478;-14
2021/03/15 06:29:49;;;;;;;7.23;6.47;;;;;;;;;;5002830;28;20446;-14
2021/03/15 06:32:18;;;;;;;7.10;6.70;;;;;;;;;;4964587;28;20455;-16
2021/03/15 06:34:46;;;;;;;11.67;10.60;;;;;;;;;;4979231;28;20558;-15
2021/03/15 06:37:16;;;;;;;14.33;13.00;;;;;;;;;;4980285;28;20546;-15
2021/03/15 06:39:47;;;;;;;22.20;20.10;;;;;;;;;;4988064;28;20624;-15
2021/03/15 06:42:16;;;;;;;12.40;11.40;;;;;;;;;;4996491;28;20469;-15
2021/03/15 06:44:46;;;;;;;17.00;15.63;;;;;;;;;;4994760;28;20459;-15
2021/03/15 06:47:15;;;;;;;6.60;6.20;;;;;;;;;;4994114;28;20478;-15
2021/03/15 06:49:44;;;;;;;6.50;6.07;;;;;;;;;;4993386;28;20883;-14
2021/03/15 06:52:22;;;;;;;7.40;6.80;;;;;;;;;;4993254;28;20463;-15
2021/03/15 06:55:01;;;;;;;8.33;7.53;;;;;;;;;;4988193;28;20435;-15
2021/03/15 06:57:32;;;;;;;6.87;6.40;;;;;;;;;;4971870;28;20451;-15
2021/03/15 07:00:02;;;;;;;6.90;6.50;;;;;;;;;;4967239;28;20897;-15
2021/03/15 07:02:33;;;;;;;6.00;5.50;;;;;;;;;;4970847;28;20443;-15
2021/03/15 07:05:08;;;;;;;6.17;5.67;;;;;;;;;;4958831;28;20496;-14
2021/03/15 07:07:44;;;;;;;6.03;5.50;;;;;;;;;;4989189;28;20608;-15
2021/03/15 07:10:16;;;;;;;6.10;5.63;;;;;;;;;;4965984;28;20610;-15
2021/03/15 07:12:45;;;;;;;5.77;5.33;;;;;;;;;;4964353;28;20459;-14
2021/03/15 07:15:14;;;;;;;5.50;5.20;;;;;;;;;;4976960;28;20475;-15
2021/03/15 07:17:41;;;;;;;6.33;5.93;;;;;;;;;;4980821;28;20590;-15
2021/03/15 07:20:10;;;;;;;6.00;5.63;;;;;;;;;;4986899;28;20451;-15
2021/03/15 07:22:46;;;;;;;9.20;6.00;;;;;;;;;;4986949;28;20528;-15
2021/03/15 07:25:19;;;;;;;5.80;5.40;;;;;;;;;;4988534;28;20442;-15
2021/03/15 07:27:52;;;;;;;4.63;4.43;;;;;;;;;;4989950;28;20467;-15
2021/03/15 07:30:27;;;;;;;6.70;5.27;;;;;;;;;;4954524;28;20451;-14
2021/03/15 07:33:05;;;;;;;6.93;6.33;;;;;;;;;;4990004;28;20981;-14
2021/03/15 07:35:35;;;;;;;6.83;6.33;;;;;;;;;;4968051;28;21140;-15
2021/03/15 07:38:04;;;;;;;11.83;10.97;;;;;;;;;;4963303;28;20463;-15
2021/03/15 07:40:42;;;;;;;8.20;7.70;;;;;;;;;;4967726;28;20467;-14
2021/03/15 07:43:11;;;;;;;7.13;6.37;;;;;;;;;;4980626;28;20936;-15
2021/03/15 07:45:41;;;;;;;6.20;5.60;;;;;;;;;;4966248;28;20556;-15
2021/03/15 07:48:13;;;;;;;5.77;5.47;;;;;;;;;;4976749;28;20480;-15
2021/03/15 07:50:42;;;;;;;6.30;5.80;;;;;;;;;;4978744;28;20463;-16
2021/03/15 07:53:17;;;;;;;5.80;5.40;;;;;;;;;;4984565;28;20451;-14
2021/03/15 07:55:51;;;;;;;6.27;5.77;;;;;;;;;;4949972;28;20552;-16
2021/03/15 07:58:27;;;;;;;6.13;5.73;;;;;;;;;;4964083;28;20470;-15
2021/03/15 08:00:54;;;;;;;6.10;5.60;;;;;;;;;;4964620;28;21480;-15
2021/03/15 08:03:23;;;;;;;7.00;5.63;;;;;;;;;;4985703;28;20447;-15
2021/03/15 08:05:52;;;;;;;5.90;5.40;;;;;;;;;;4981189;28;20788;-15
2021/03/15 08:08:21;;;;;;;5.67;5.37;;;;;;;;;;4981923;28;20463;-16
2021/03/15 08:10:55;;;;;;;5.87;5.57;;;;;;;;;;4962447;28;20450;-15
2021/03/15 08:13:23;;;;;;;5.70;5.40;;;;;;;;;;4976821;28;20468;-15
2021/03/15 08:15:53;;;;;;;5.67;5.27;;;;;;;;;;4962841;28;20456;-16
2021/03/15 08:18:23;;;;;;;9.27;6.77;;;;;;;;;;4966058;28;20468;-15
2021/03/15 08:20:52;;;;;;;7.00;6.40;;;;;;;;;;4975299;28;20509;-15
2021/03/15 08:23:23;;;;;;;7.53;5.57;;;;;;;;;;4958159;28;20500;-15
2021/03/15 08:25:53;;;;;;;5.70;5.40;;;;;;;;;;4959694;28;20439;-15
2021/03/15 08:28:23;;;;;;;6.03;5.57;;;;;;;;;;4980276;28;20463;-16
2021/03/15 08:30:55;;;;;;;18.47;16.87;;;;;;;;;;4966787;28;20435;-15
2021/03/15 08:33:24;;;;;;;6.20;5.83;;;;;;;;;;4980027;28;20737;-15
2021/03/15 08:35:54;;;;;;;5.03;4.73;;;;;;;;;;4961629;28;21227;-16
2021/03/15 08:38:30;;;;;;;5.63;4.53;;;;;;;;;;4977503;28;20463;-15
2021/03/15 08:40:59;;;;;;;4.97;4.77;;;;;;;;;;4982696;28;20458;-16
2021/03/15 08:43:36;;;;;;;5.07;4.67;;;;;;;;;;4967319;28;20492;-15
2021/03/15 08:46:05;;;;;;;4.47;4.07;;;;;;;;;;4953610;28;20533;-15
2021/03/15 08:48:51;;;;;;;4.60;4.30;;;;;;;;;;4945254;28;20499;-15
2021/03/15 08:51:34;;;;;;;3.83;3.63;;;;;;;;;;4983677;28;20447;-15
2021/03/15 08:54:04;;;;;;;4.30;4.10;;;;;;;;;;4983677;28;20953;-15
2021/03/15 08:56:37;;;;;;;3.70;3.50;;;;;;;;;;4987318;28;20450;-15
2021/03/15 08:59:06;;;;;;;3.67;3.47;;;;;;;;;;5002719;28;20443;-15
2021/03/15 09:01:48;;;;;;;3.90;3.70;;;;;;;;;;4982827;28;20723;-15
2021/03/15 09:04:39;;;;;;;3.03;2.93;;;;;;;;;;5001969;28;20454;-15
2021/03/15 09:07:28;;;;;;;3.50;3.30;;;;;;;;;;4992998;28;20456;-15
2021/03/15 09:09:56;;;;;;;3.83;2.90;;;;;;;;;;4974802;28;21122;-15
2021/03/15 09:12:34;;;;;;;3.50;3.30;;;;;;;;;;4973764;28;21274;-15
2021/03/15 09:15:06;;;;;;;3.00;2.90;;;;;;;;;;4975588;28;20475;-14
2021/03/15 09:17:34;;;;;;;4.30;4.10;;;;;;;;;;4961338;28;20850;-15
2021/03/15 09:20:18;;;;;;;3.70;3.50;;;;;;;;;;4937476;28;20463;-15
2021/03/15 09:22:47;;;;;;;4.10;3.90;;;;;;;;;;4980420;28;20442;-15
2021/03/15 09:25:30;;;;;;;4.13;3.93;;;;;;;;;;4965061;28;20451;-15
2021/03/15 09:28:01;;;;;;;4.17;3.83;;;;;;;;;;4970744;28;20985;-14
2021/03/15 09:30:35;;;;;;;6.43;5.83;;;;;;;;;;4964391;28;20443;-16
2021/03/15 09:33:03;;;;;;;3.97;3.73;;;;;;;;;;4979716;28;20489;-14
2021/03/15 09:35:31;;;;;;;4.10;3.80;;;;;;;;;;4975873;28;20944;-15
2021/03/15 09:38:01;;;;;;;3.60;3.40;;;;;;;;;;4976858;28;20497;-15
2021/03/15 09:40:31;;;;;;;3.30;3.20;;;;;;;;;;4981405;28;20469;-15
2021/03/15 09:43:03;;;;;;;3.30;3.20;;;;;;;;;;4983481;28;20628;-16
2021/03/15 09:45:34;;;;;;;3.67;3.47;;;;;;;;;;4960214;28;20585;-14
2021/03/15 09:48:03;;;;;;;3.60;3.40;;;;;;;;;;4967519;28;20649;-15
2021/03/15 09:50:33;;;;;;;3.90;3.60;;;;;;;;;;4962770;28;20502;-15
2021/03/15 09:53:16;;;;;;;3.50;3.30;;;;;;;;;;4982717;28;20562;-14
2021/03/15 09:56:02;;;;;;;3.83;3.53;;;;;;;;;;4944868;28;20451;-16
2021/03/15 09:58:35;;;;;;;4.13;3.93;;;;;;;;;;4954249;28;20884;-14
2021/03/15 10:01:10;;;;;;;4.27;4.00;;;;;;;;;;4967836;28;20467;-15
2021/03/15 10:07:47;;;;;;;4.10;3.90;;;;;;;;;;4909007;29;20510;-15
2021/03/15 10:10:35;;;;;;;3.50;3.40;;;;;;;;;;4933246;28;20430;-14
2021/03/15 10:13:21;;;;;;;3.57;3.37;;;;;;;;;;4984459;28;20455;-15
2021/03/15 10:16:10;;;;;;;3.47;3.37;;;;;;;;;;4980159;28;20473;-15
2021/03/15 10:18:57;;;;;;;3.80;3.60;;;;;;;;;;4968361;28;20467;-14
2021/03/15 10:21:26;;;;;;;3.70;3.50;;;;;;;;;;4967940;28;20466;-15
2021/03/15 10:23:53;;;;;;;3.33;3.23;;;;;;;;;;4965179;28;20463;-15
2021/03/15 10:26:22;;;;;;;3.40;3.30;;;;;;;;;;4981463;28;20750;-14
2021/03/15 10:28:55;;;;;;;4.00;3.80;;;;;;;;;;4964761;28;20514;-15
2021/03/15 10:31:47;;;;;;;3.63;3.43;;;;;;;;;;4977583;28;20585;-15
2021/03/15 10:34:15;;;;;;;3.67;3.47;;;;;;;;;;4962374;28;20448;-15
2021/03/15 10:36:57;;;;;;;3.57;3.40;;;;;;;;;;4981602;28;20444;-15
2021/03/15 10:39:43;;;;;;;3.80;3.60;;;;;;;;;;4965865;28;20488;-17
2021/03/15 10:42:14;;;;;;;3.13;3.03;;;;;;;;;;4962415;28;20447;-16
2021/03/15 10:44:42;;;;;;;3.30;3.20;;;;;;;;;;4964928;28;20463;-14
2021/03/15 10:47:15;;;;;;;3.03;2.93;;;;;;;;;;4985353;28;21163;-16
2021/03/15 10:49:51;;;;;;;2.97;2.87;;;;;;;;;;4983231;28;20450;-15
2021/03/15 10:52:38;;;;;;;3.43;3.23;;;;;;;;;;4984336;28;20444;-15
2021/03/15 10:55:15;;;;;;;3.60;3.30;;;;;;;;;;4981577;28;20452;-15
2021/03/15 10:58:04;;;;;;;3.27;3.10;;;;;;;;;;4949455;28;20456;-15
2021/03/15 11:00:36;;;;;;;2.93;2.73;;;;;;;;;;4952644;28;20457;-14
2021/03/15 11:03:06;;;;;;;2.80;2.60;;;;;;;;;;4942618;28;20487;-14
2021/03/15 11:05:38;;;;;;;3.00;2.90;;;;;;;;;;4946787;28;20460;-15
2021/03/15 11:08:06;;;;;;;2.63;2.53;;;;;;;;;;4974527;28;20495;-14
2021/03/15 11:10:38;;;;;;;4.27;4.07;;;;;;;;;;4967199;28;20458;-15
2021/03/15 11:13:19;;;;;;;3.20;3.00;;;;;;;;;;4981595;28;20489;-15
2021/03/15 11:15:52;;;;;;;3.60;3.40;;;;;;;;;;4977205;28;20533;-14
2021/03/15 11:18:27;;;;;;;3.00;2.80;;;;;;;;;;4979177;28;20525;-14
2021/03/15 11:21:13;;;;;;;3.40;3.20;;;;;;;;;;4948449;28;20662;-14
2021/03/15 11:24:04;;;;;;;3.80;3.50;;;;;;;;;;4981777;28;20459;-15
2021/03/15 11:27:04;;;;;;;2.83;2.63;;;;;;;;;;4956030;28;20454;-15
2021/03/15 11:29:52;;;;;;;3.20;3.07;;;;;;;;;;4963517;28;20468;-15
2021/03/15 11:32:40;;;;;;;3.00;2.90;;;;;;;;;;4984573;28;20621;-15
2021/03/15 11:35:20;;;;;;;3.83;3.53;;;;;;;;;;4961433;28;20451;-14
2021/03/15 11:37:59;;;;;;;3.47;3.27;;;;;;;;;;4975494;28;20436;-15
2021/03/15 11:40:47;;;;;;;4.30;3.90;;;;;;;;;;4959732;28;20455;-14
2021/03/15 11:43:24;;;;;;;3.97;3.67;;;;;;;;;;4987739;28;20497;-14
2021/03/15 11:46:15;;;;;;;3.63;3.43;;;;;;;;;;4974083;28;20530;-14
2021/03/15 11:48:42;;;;;;;4.47;4.27;;;;;;;;;;4958123;28;20517;-16
2021/03/15 11:51:30;;;;;;;4.47;4.07;;;;;;;;;;4970312;28;20466;-15
2021/03/15 11:54:25;;;;;;;4.30;4.00;;;;;;;;;;4984691;28;20483;-15
2021/03/15 11:56:56;;;;;;;4.83;4.50;;;;;;;;;;4977434;28;20479;-14
2021/03/15 11:59:29;;;;;;;5.37;4.87;;;;;;;;;;4973924;28;20499;-14
2021/03/15 12:02:17;;;;;;;4.60;4.30;;;;;;;;;;4986524;28;20447;-14
2021/03/15 12:04:49;;;;;;;5.40;5.00;;;;;;;;;;4973687;28;20592;-14
2021/03/15 12:07:18;;;;;;;5.60;3.90;;;;;;;;;;4992108;28;20453;-14
2021/03/15 12:09:55;;;;;;;7.27;4.23;;;;;;;;;;4972631;28;20841;-14
2021/03/15 12:12:26;;;;;;;3.77;3.43;;;;;;;;;;4966392;28;21207;-15
2021/03/15 12:15:07;;;;;;;3.80;3.70;;;;;;;;;;4971004;28;20518;-14
2021/03/15 12:17:34;;;;;;;3.23;3.13;;;;;;;;;;4980876;28;20703;-14
2021/03/15 12:20:01;;;;;;;3.30;3.10;;;;;;;;;;4965681;28;20520;-15
2021/03/15 12:22:48;;;;;;;3.73;3.47;;;;;;;;;;4977864;28;20451;-15
2021/03/15 12:25:18;;;;;;;3.90;3.70;;;;;;;;;;4958709;28;20634;-14
2021/03/15 12:27:54;;;;;;;4.23;3.73;;;;;;;;;;4958395;28;20467;-15
2021/03/15 12:30:22;;;;;;;3.70;3.50;;;;;;;;;;4956844;28;20454;-15
2021/03/15 12:32:50;;;;;;;3.60;3.40;;;;;;;;;;4956159;28;20502;-15
2021/03/15 12:35:20;;;;;;;5.13;4.73;;;;;;;;;;4953717;28;20451;-15
2021/03/15 12:37:48;;;;;;;4.40;4.10;;;;;;;;;;4973138;28;20439;-15
2021/03/15 12:40:22;;;;;;;4.33;4.10;;;;;;;;;;4959052;28;20496;-15
2021/03/15 12:42:52;;;;;;;4.60;4.30;;;;;;;;;;4975633;28;20451;-15
2021/03/15 12:45:31;;;;;;;4.90;4.60;;;;;;;;;;4957145;28;20439;-15
2021/03/15 12:47:59;;;;;;;4.07;3.87;;;;;;;;;;4956646;28;20748;-15
2021/03/15 12:50:27;;;;;;;5.20;4.90;;;;;;;;;;4951185;28;20782;-16
2021/03/15 12:53:01;;;;;;;5.90;5.50;;;;;;;;;;4950873;28;20451;-15
2021/03/15 12:55:52;;;;;;;4.50;4.30;;;;;;;;;;4963114;28;20882;-15
2021/03/15 12:58:19;;;;;;;4.27;4.03;;;;;;;;;;4975501;28;20630;-14
2021/03/15 13:00:56;;;;;;;3.90;3.70;;;;;;;;;;4974241;28;20505;-15
2021/03/15 13:03:31;;;;;;;5.00;4.70;;;;;;;;;;4973929;28;20552;-15
2021/03/15 13:05:58;;;;;;;3.60;3.40;;;;;;;;;;4973557;28;20790;-14
2021/03/15 13:08:46;;;;;;;3.67;3.47;;;;;;;;;;4983907;28;20501;-14
2021/03/15 13:11:46;;;;;;;3.30;3.20;;;;;;;;;;4986828;28;20459;-14
2021/03/15 13:14:44;;;;;;;3.47;3.27;;;;;;;;;;4955202;28;21182;-14
2021/03/15 13:17:37;;;;;;;3.67;3.53;;;;;;;;;;4972366;28;20630;-14
2021/03/15 13:20:11;;;;;;;3.27;3.17;;;;;;;;;;4963551;28;21047;-14
2021/03/15 13:22:48;;;;;;;4.13;3.83;;;;;;;;;;4967372;28;20570;-15
2021/03/15 13:25:26;;;;;;;3.80;3.60;;;;;;;;;;4957808;28;20466;-15
2021/03/15 13:27:56;;;;;;;3.53;3.43;;;;;;;;;;4969680;28;20773;-16
2021/03/15 13:30:24;;;;;;;3.33;3.23;;;;;;;;;;4981459;28;20521;-14
2021/03/15 13:32:54;;;;;;;4.03;3.73;;;;;;;;;;4966101;28;20449;-14
2021/03/15 13:35:23;;;;;;;4.00;3.80;;;;;;;;;;4964628;28;20563;-15
2021/03/15 13:37:56;;;;;;;3.50;3.30;;;;;;;;;;4957330;28;20452;-14
2021/03/15 13:40:38;;;;;;;3.17;3.07;;;;;;;;;;4943208;28;20491;-15
2021/03/15 13:43:24;;;;;;;3.60;3.50;;;;;;;;;;4924585;28;20736;-15
2021/03/15 13:45:53;;;;;;;3.47;3.37;;;;;;;;;;4944005;28;20444;-15
2021/03/15 13:48:28;;;;;;;3.90;3.70;;;;;;;;;;4930737;28;20467;-15
2021/03/15 13:50:59;;;;;;;3.70;3.60;;;;;;;;;;4949902;28;20525;-14
2021/03/15 13:53:29;;;;;;;3.73;3.63;;;;;;;;;;4947101;28;20741;-15
2021/03/15 13:56:06;;;;;;;5.20;4.90;;;;;;;;;;4963870;28;21111;-15
2021/03/15 13:58:44;;;;;;;3.97;3.80;;;;;;;;;;4988387;28;20478;-15
2021/03/15 14:01:14;;;;;;;4.93;4.37;;;;;;;;;;4973431;28;20444;-16
2021/03/15 14:04:13;;;;;;;5.67;4.30;;;;;;;;;;4982272;28;20463;-15
2021/03/15 14:07:00;;;;;;;4.50;4.30;;;;;;;;;;4985855;28;20459;-15
2021/03/15 14:09:32;;;;;;;4.63;3.60;;;;;;;;;;4971069;28;20467;-15
2021/03/15 14:12:04;;;;;;;4.20;3.93;;;;;;;;;;4965796;28;20574;-15
2021/03/15 14:14:36;;;;;;;3.80;3.60;;;;;;;;;;4965051;28;20780;-15
2021/03/15 14:17:07;;;;;;;4.30;4.10;;;;;;;;;;4969798;28;20677;-14
2021/03/15 14:19:34;;;;;;;4.30;4.10;;;;;;;;;;4969395;28;20806;-15
2021/03/15 14:22:14;;;;;;;4.37;4.17;;;;;;;;;;4964744;28;20791;-14
2021/03/15 14:24:48;;;;;;;4.63;4.33;;;;;;;;;;4983449;28;20505;-15
2021/03/15 14:27:31;;;;;;;5.57;4.93;;;;;;;;;;4965971;28;20692;-14
2021/03/15 14:29:59;;;;;;;4.60;4.40;;;;;;;;;;4964988;28;20675;-16
2021/03/15 14:32:27;;;;;;;5.40;4.97;;;;;;;;;;4960256;28;20986;-14
2021/03/15 14:35:15;;;;;;;4.87;4.67;;;;;;;;;;4980364;28;20513;-15
2021/03/15 14:37:48;;;;;;;4.70;4.50;;;;;;;;;;4987491;28;20470;-15
2021/03/15 14:40:16;;;;;;;5.13;4.93;;;;;;;;;;4960995;28;20458;-14
2021/03/15 14:42:44;;;;;;;6.20;5.70;;;;;;;;;;4968931;28;20470;-14
2021/03/15 14:45:25;;;;;;;5.17;4.80;;;;;;;;;;4986985;28;20439;-14
2021/03/15 14:48:00;;;;;;;4.53;4.30;;;;;;;;;;4983500;28;20467;-14
2021/03/15 14:50:33;;;;;;;4.63;4.37;;;;;;;;;;4952042;28;20534;-14
2021/03/15 14:53:29;;;;;;;5.07;4.87;;;;;;;;;;4956192;28;20863;-14
2021/03/15 14:56:04;;;;;;;5.30;5.00;;;;;;;;;;4977668;28;20543;-14
2021/03/15 14:58:32;;;;;;;5.93;5.63;;;;;;;;;;4970529;28;656929;-14
2021/03/15 15:00:59;;;;;;;5.13;4.90;;;;;;;;;;4991448;28;20237;-14
2021/03/15 15:03:32;;;;;;;4.63;4.43;;;;;;;;;;4971057;28;20443;-14
2021/03/15 15:06:03;;;;;;;5.47;5.17;;;;;;;;;;4978975;28;20490;-14
2021/03/15 15:08:31;;;;;;;4.70;4.50;;;;;;;;;;4980592;28;20468;-14
2021/03/15 15:11:03;;;;;;;5.00;4.80;;;;;;;;;;4944263;28;20451;-14
2021/03/15 15:13:34;;;;;;;5.73;5.40;;;;;;;;;;4947543;28;20841;-15
2021/03/15 15:16:07;;;;;;;5.80;5.60;;;;;;;;;;4961072;28;20451;-15
2021/03/15 15:18:39;;;;;;;4.87;4.63;;;;;;;;;;4957935;28;20466;-15
2021/03/15 15:21:10;;;;;;;5.00;4.70;;;;;;;;;;4978186;28;20456;-13
2021/03/15 15:23:43;;;;;;;5.87;4.80;;;;;;;;;;4945498;28;20741;-14